Time;durP1;ratioP1;P1;durP2;ratioP2;P2;SDS_P1;SDS_P2;PMS_P1;PMS_P2;Temp;Humidity;BMP_temperature;BMP_pressure;BME280_temperature;BME280_humidity;BME280_pressure;Samples;Min_cycle;Max_cycle;Signal;HPM_P1;HPM_P2
2022/02/06 00:00:01;;;;;;;7.90;2.47;;;6.00;99.90;;;;;;5043493;28;20437;-73
2022/02/06 00:02:48;;;;;;;12.70;3.10;;;6.00;99.90;;;;;;5041351;28;20996;-73
2022/02/06 00:05:34;;;;;;;13.80;2.60;;;5.90;99.90;;;;;;5044502;28;20800;-74
2022/02/06 00:08:20;;;;;;;11.07;2.90;;;6.00;99.90;;;;;;5051281;28;20859;-73
2022/02/06 00:11:07;;;;;;;9.57;2.65;;;6.00;99.90;;;;;;5051308;28;20506;-70
2022/02/06 00:13:53;;;;;;;5.40;1.90;;;6.00;99.90;;;;;;5049419;28;20209;-73
2022/02/06 00:16:39;;;;;;;6.37;2.63;;;6.00;99.90;;;;;;5062251;28;20230;-72
2022/02/06 00:19:24;;;;;;;10.10;2.27;;;6.00;99.90;;;;;;5053286;28;20541;-74
2022/02/06 00:22:12;;;;;;;8.00;2.38;;;6.00;99.90;;;;;;5046978;28;21051;-72
2022/02/06 00:25:12;;;;;;;8.70;2.60;;;6.00;99.90;;;;;;5043155;28;20205;-73
2022/02/06 00:28:12;;;;;;;5.87;2.10;;;6.00;99.90;;;;;;5044526;28;20462;-73
2022/02/06 00:31:08;;;;;;;7.07;2.88;;;6.00;99.90;;;;;;5041363;28;20610;-73
2022/02/06 00:34:33;;;;;;;4.93;1.50;;;6.00;99.90;;;;;;5041241;28;20213;-73
2022/02/06 00:40:10;;;;;;;10.63;2.25;;;6.10;99.90;;;;;;5058322;28;20573;-73
2022/02/06 00:42:56;;;;;;;6.00;2.22;;;6.10;99.90;;;;;;5039328;28;20198;-73
2022/02/06 00:45:43;;;;;;;15.00;2.33;;;6.10;99.90;;;;;;5049314;28;20212;-73
2022/02/06 00:48:33;;;;;;;14.65;2.80;;;6.10;99.90;;;;;;5047453;28;20564;-73
2022/02/06 00:51:26;;;;;;;9.60;2.38;;;6.10;99.90;;;;;;5050536;28;20228;-73
2022/02/06 00:54:11;;;;;;;8.65;2.20;;;6.10;99.90;;;;;;5051366;28;20204;-73
2022/02/06 00:56:57;;;;;;;9.45;2.20;;;6.10;99.90;;;;;;5054111;28;20225;-73
2022/02/06 00:59:43;;;;;;;4.25;2.03;;;6.20;99.90;;;;;;5053168;28;20204;-74
2022/02/06 01:02:30;;;;;;;12.65;3.10;;;6.10;99.90;;;;;;5050900;28;20673;-73
2022/02/06 01:05:15;;;;;;;6.00;2.83;;;6.20;99.90;;;;;;5060883;28;20212;-73
2022/02/06 01:08:01;;;;;;;8.65;2.33;;;6.10;99.90;;;;;;5057906;28;20805;-73
2022/02/06 01:10:47;;;;;;;17.17;2.78;;;6.00;99.90;;;;;;5050093;28;20208;-73
2022/02/06 01:13:40;;;;;;;6.07;3.00;;;6.00;99.90;;;;;;5055215;28;20206;-73
2022/02/06 01:16:30;;;;;;;9.23;2.03;;;6.00;99.90;;;;;;5055030;28;20443;-73
2022/02/06 01:19:21;;;;;;;12.90;2.77;;;6.00;99.90;;;;;;5059292;28;20238;-73
2022/02/06 01:22:10;;;;;;;8.50;2.67;;;6.00;99.90;;;;;;5045630;28;20464;-73
2022/02/06 01:25:02;;;;;;;9.85;2.90;;;6.00;99.90;;;;;;5052938;28;20423;-73
2022/02/06 01:27:55;;;;;;;9.45;2.25;;;6.00;99.90;;;;;;5058847;28;20266;-73
2022/02/06 01:30:47;;;;;;;7.47;2.70;;;6.00;99.90;;;;;;5050164;28;20200;-74
2022/02/06 01:33:37;;;;;;;9.00;2.40;;;6.00;99.90;;;;;;5056848;28;20720;-73
2022/02/06 01:36:32;;;;;;;9.70;2.27;;;6.00;99.90;;;;;;5055268;28;20205;-73
2022/02/06 01:39:34;;;;;;;7.23;2.10;;;5.90;99.90;;;;;;5058710;28;20413;-73
2022/02/06 01:42:27;;;;;;;17.88;3.00;;;6.00;99.90;;;;;;5052455;28;20930;-73
2022/02/06 01:45:35;;;;;;;7.93;2.55;;;6.00;99.90;;;;;;5055615;28;20200;-72
2022/02/06 02:00:56;;;;;;;6.03;2.28;;;6.00;99.90;;;;;;5053666;28;20285;-73
2022/02/06 02:03:49;;;;;;;7.50;2.50;;;6.00;99.90;;;;;;5051121;28;20336;-73
2022/02/06 02:06:58;;;;;;;8.65;2.30;;;6.00;99.90;;;;;;5057583;28;20216;-74
2022/02/06 02:10:08;;;;;;;8.02;3.05;;;6.00;99.90;;;;;;5050850;28;20320;-73
2022/02/06 02:13:14;;;;;;;6.75;2.40;;;6.10;99.90;;;;;;5045932;28;20339;-74
2022/02/06 02:16:30;;;;;;;9.10;2.53;;;6.10;99.90;;;;;;5047900;28;20221;-73
2022/02/06 02:22:52;;;;;;;4.57;2.20;;;6.20;99.90;;;;;;5082176;27;20575;-73
2022/02/06 02:26:08;;;;;;;8.03;2.50;;;6.20;99.90;;;;;;5083847;28;20201;-73
2022/02/06 02:47:17;;;;;;;14.95;2.40;;;6.20;99.90;;;;;;5055245;28;20483;-72
2022/02/06 02:50:10;;;;;;;12.30;2.60;;;6.20;99.90;;;;;;5057431;28;20775;-73
2022/02/06 02:53:06;;;;;;;7.80;1.95;;;6.20;99.90;;;;;;5056620;28;20416;-72
2022/02/06 02:56:03;;;;;;;8.25;2.38;;;6.20;99.90;;;;;;5060336;28;20202;-73
2022/02/06 02:58:59;;;;;;;13.32;2.60;;;6.20;99.90;;;;;;5049324;28;20353;-72
2022/02/06 03:01:51;;;;;;;8.27;2.40;;;6.20;99.90;;;;;;5061448;28;20722;-73
2022/02/06 03:04:36;;;;;;;7.25;2.08;;;6.20;99.90;;;;;;5060336;28;20202;-73
2022/02/06 03:07:22;;;;;;;9.07;2.50;;;6.20;99.90;;;;;;5053481;28;20610;-72
2022/02/06 03:10:09;;;;;;;9.87;1.93;;;6.20;99.90;;;;;;5058235;28;20205;-72
2022/02/06 03:12:56;;;;;;;13.07;2.63;;;6.20;99.90;;;;;;5050580;28;20443;-73
2022/02/06 03:15:45;;;;;;;6.78;1.92;;;6.30;99.90;;;;;;5061746;28;20538;-73
2022/02/06 03:18:35;;;;;;;7.78;2.35;;;6.30;99.90;;;;;;5059021;28;20234;-73
2022/02/06 03:21:24;;;;;;;9.05;2.53;;;6.30;99.90;;;;;;5055157;28;20339;-72
2022/02/06 03:24:21;;;;;;;7.90;1.75;;;6.30;99.90;;;;;;5053499;28;20204;-72
2022/02/06 03:27:07;;;;;;;5.80;2.20;;;6.30;99.90;;;;;;5059323;28;20224;-73
2022/02/06 03:29:55;;;;;;;7.28;2.15;;;6.30;99.90;;;;;;5057542;28;20564;-73
2022/02/06 03:32:41;;;;;;;7.88;2.17;;;6.30;99.90;;;;;;5048320;28;20195;-73
2022/02/06 03:35:27;;;;;;;11.47;2.57;;;6.40;99.90;;;;;;5044329;28;20200;-73
2022/02/06 03:38:12;;;;;;;5.28;1.85;;;6.40;99.90;;;;;;5034812;28;20822;-73
2022/02/06 03:41:02;;;;;;;8.32;1.92;;;6.40;99.90;;;;;;5047995;28;20333;-73
2022/02/06 03:43:54;;;;;;;8.57;1.98;;;6.30;99.90;;;;;;5046024;28;20305;-73
2022/02/06 03:46:50;;;;;;;11.55;2.42;;;6.40;99.90;;;;;;5047490;28;20202;-72
2022/02/06 03:49:47;;;;;;;6.63;1.65;;;6.40;99.90;;;;;;5045140;28;20207;-73
2022/02/06 03:52:37;;;;;;;7.20;2.07;;;6.40;99.90;;;;;;5041428;28;20754;-73
2022/02/06 03:55:22;;;;;;;5.40;1.83;;;6.40;99.90;;;;;;5041007;28;20831;-73
2022/02/06 03:58:08;;;;;;;14.93;2.23;;;6.40;99.90;;;;;;5039154;28;20627;-73
2022/02/06 04:00:54;;;;;;;5.28;1.92;;;6.40;99.90;;;;;;5046464;28;20461;-73
2022/02/06 04:03:42;;;;;;;7.97;3.20;;;6.40;99.90;;;;;;5041351;28;20209;-73
2022/02/06 04:06:28;;;;;;;7.63;2.17;;;6.40;99.90;;;;;;5043551;28;21875;-73
2022/02/06 04:09:19;;;;;;;10.38;2.40;;;6.40;99.90;;;;;;5036480;28;20529;-72
2022/02/06 04:12:06;;;;;;;15.57;2.20;;;6.30;99.90;;;;;;5037556;28;20217;-72
2022/02/06 04:14:56;;;;;;;6.67;2.20;;;6.40;99.90;;;;;;5045511;28;20458;-73
2022/02/06 04:17:47;;;;;;;5.93;2.20;;;6.50;99.90;;;;;;5041793;28;20443;-73
2022/02/06 04:20:34;;;;;;;10.13;3.07;;;6.40;99.90;;;;;;5040175;28;20974;-73
2022/02/06 04:23:20;;;;;;;8.93;2.10;;;6.40;99.90;;;;;;5043230;28;20500;-73
2022/02/06 04:26:05;;;;;;;4.95;1.83;;;6.40;99.90;;;;;;5043885;28;20575;-72
2022/02/06 04:28:51;;;;;;;14.90;4.00;;;6.40;99.90;;;;;;5038841;28;20242;-73
2022/02/06 04:31:39;;;;;;;8.00;2.30;;;6.40;99.90;;;;;;5045895;28;20441;-73
2022/02/06 04:34:25;;;;;;;7.80;3.07;;;6.40;99.90;;;;;;5039822;28;20457;-73
2022/02/06 04:37:18;;;;;;;11.40;2.47;;;6.40;99.90;;;;;;5041369;28;20604;-72
2022/02/06 04:40:16;;;;;;;8.13;2.13;;;6.30;99.90;;;;;;5046691;28;20846;-72
2022/02/06 04:43:23;;;;;;;11.65;3.03;;;6.30;99.90;;;;;;5053570;28;20323;-72
2022/02/06 04:53:01;;;;;;;6.43;2.20;;;6.30;99.90;;;;;;5037201;28;20290;-71
2022/02/06 05:11:34;;;;;;;9.63;2.60;;;6.30;99.90;;;;;;5036536;28;20479;-72
2022/02/06 05:14:26;;;;;;;5.40;2.10;;;6.20;99.90;;;;;;5034628;28;20268;-71
2022/02/06 05:23:43;;;;;;;8.30;2.65;;;6.20;99.90;;;;;;5042837;28;20439;-71
2022/02/06 05:29:36;;;;;;;8.90;2.37;;;6.10;99.90;;;;;;5041107;28;20535;-72
2022/02/06 05:32:32;;;;;;;5.80;2.25;;;6.10;99.90;;;;;;5040634;28;20524;-71
2022/02/06 05:35:17;;;;;;;8.20;2.33;;;6.10;99.90;;;;;;5043849;28;20240;-72
2022/02/06 05:38:03;;;;;;;6.23;2.30;;;6.20;99.90;;;;;;5045173;28;20859;-72
2022/02/06 05:40:50;;;;;;;8.20;2.80;;;6.10;99.90;;;;;;5048620;28;20476;-71
2022/02/06 05:43:37;;;;;;;12.10;3.50;;;6.10;99.90;;;;;;5040334;28;20493;-72
2022/02/06 05:46:22;;;;;;;15.27;2.97;;;6.20;99.90;;;;;;5045691;28;20419;-72
2022/02/06 05:49:11;;;;;;;7.40;2.10;;;6.20;99.90;;;;;;5043130;28;20443;-72
2022/02/06 05:51:57;;;;;;;7.35;2.60;;;6.20;99.90;;;;;;5035338;28;20804;-72
2022/02/06 05:54:42;;;;;;;4.85;2.13;;;6.10;99.90;;;;;;5043350;28;20197;-71
2022/02/06 05:57:30;;;;;;;3.90;1.80;;;6.10;99.90;;;;;;5038386;28;20709;-72
2022/02/06 06:00:15;;;;;;;7.97;2.17;;;6.10;99.90;;;;;;5038513;28;20580;-72
2022/02/06 06:03:01;;;;;;;3.40;1.80;;;6.10;99.90;;;;;;5049054;28;20201;-72
2022/02/06 06:05:47;;;;;;;4.00;2.05;;;6.10;99.90;;;;;;5043543;28;20205;-72
2022/02/06 06:08:33;;;;;;;4.78;2.13;;;6.10;99.90;;;;;;5048367;28;20344;-72
2022/02/06 06:11:19;;;;;;;8.40;2.50;;;6.10;99.90;;;;;;5037326;28;20212;-72
2022/02/06 06:14:06;;;;;;;9.40;3.00;;;6.10;99.90;;;;;;5034552;28;20217;-72
2022/02/06 06:16:52;;;;;;;11.93;1.93;;;6.10;99.90;;;;;;5040498;28;20979;-72
2022/02/06 06:19:41;;;;;;;7.32;2.22;;;6.20;99.90;;;;;;5038509;28;20721;-72
2022/02/06 06:22:26;;;;;;;6.95;2.67;;;6.20;99.90;;;;;;5041966;28;20280;-71
2022/02/06 06:25:12;;;;;;;6.47;2.53;;;6.20;99.90;;;;;;5033954;28;20681;-71
2022/02/06 06:27:58;;;;;;;6.23;2.67;;;6.20;99.90;;;;;;5045028;28;20583;-72
2022/02/06 06:30:45;;;;;;;7.28;2.33;;;6.20;99.90;;;;;;5041533;28;20544;-72
2022/02/06 06:33:31;;;;;;;9.48;2.40;;;6.20;99.90;;;;;;5041288;28;20267;-72
2022/02/06 06:36:19;;;;;;;7.90;2.33;;;6.20;99.90;;;;;;5037201;28;20202;-72
2022/02/06 06:39:06;;;;;;;8.15;2.30;;;6.10;99.90;;;;;;5044067;28;20214;-72
2022/02/06 06:41:52;;;;;;;7.38;2.58;;;6.10;99.90;;;;;;5040920;28;20208;-72
2022/02/06 06:44:38;;;;;;;9.32;2.22;;;6.10;99.90;;;;;;5040811;28;20206;-72
2022/02/06 06:47:25;;;;;;;5.70;2.05;;;6.00;99.90;;;;;;5041853;28;20351;-72
2022/02/06 06:50:11;;;;;;;3.95;2.30;;;6.00;99.90;;;;;;5036393;28;20566;-72
2022/02/06 06:52:56;;;;;;;3.80;2.30;;;6.00;99.90;;;;;;5037629;28;20193;-71
2022/02/06 06:55:45;;;;;;;8.60;2.78;;;6.00;99.90;;;;;;5041854;28;20443;-72
2022/02/06 06:58:35;;;;;;;12.82;3.30;;;6.00;99.90;;;;;;5044248;28;20222;-72
2022/02/06 07:01:42;;;;;;;12.48;3.35;;;6.00;99.90;;;;;;5044173;28;20217;-71
2022/02/06 07:04:28;;;;;;;9.60;2.47;;;6.00;99.90;;;;;;5039716;28;20192;-72
2022/02/06 07:07:15;;;;;;;6.95;2.92;;;6.00;99.90;;;;;;5037951;28;20436;-72
2022/02/06 07:10:02;;;;;;;7.03;2.83;;;6.00;99.90;;;;;;5039643;28;20302;-72
2022/02/06 07:12:47;;;;;;;10.75;3.50;;;6.00;99.90;;;;;;5037695;28;20202;-72
2022/02/06 07:15:33;;;;;;;6.63;2.63;;;6.10;99.90;;;;;;5040146;28;20327;-71
2022/02/06 07:18:19;;;;;;;7.78;2.00;;;6.10;99.90;;;;;;5039831;28;20545;-71
2022/02/06 07:21:07;;;;;;;8.70;2.73;;;6.10;99.90;;;;;;5036674;28;20213;-71
2022/02/06 07:23:53;;;;;;;9.02;2.35;;;6.20;99.90;;;;;;5048648;28;21009;-71
2022/02/06 07:26:40;;;;;;;8.10;1.92;;;6.20;99.90;;;;;;5044269;28;20285;-71
2022/02/06 07:29:26;;;;;;;18.33;2.70;;;6.20;99.90;;;;;;5044755;28;20205;-71
2022/02/06 07:32:11;;;;;;;10.95;2.53;;;6.10;99.90;;;;;;5037449;28;20565;-72
2022/02/06 07:34:57;;;;;;;5.68;2.30;;;6.10;99.90;;;;;;5044285;28;20199;-72
2022/02/06 07:37:45;;;;;;;6.30;2.85;;;6.10;99.90;;;;;;5045231;28;20242;-71
2022/02/06 07:40:31;;;;;;;10.15;2.55;;;6.10;99.90;;;;;;5040411;28;20270;-72
2022/02/06 07:43:17;;;;;;;5.47;2.10;;;6.20;99.90;;;;;;5041950;28;20229;-72
2022/02/06 07:46:08;;;;;;;5.32;1.70;;;6.20;99.90;;;;;;5043563;28;20209;-72
2022/02/06 07:48:54;;;;;;;6.70;2.70;;;6.20;99.90;;;;;;5048327;28;20569;-72
2022/02/06 07:51:40;;;;;;;8.68;2.15;;;6.30;99.90;;;;;;5041686;28;20454;-72
2022/02/06 07:54:27;;;;;;;7.53;2.15;;;6.20;99.90;;;;;;5040797;28;20217;-73
2022/02/06 07:57:13;;;;;;;12.30;2.30;;;6.30;99.90;;;;;;5048964;28;20264;-74
2022/02/06 07:59:59;;;;;;;8.85;3.50;;;6.30;99.90;;;;;;5040206;28;20427;-72
2022/02/06 08:02:44;;;;;;;10.32;4.20;;;6.30;99.90;;;;;;5034578;28;20708;-72
2022/02/06 08:05:30;;;;;;;4.95;2.35;;;6.30;99.90;;;;;;5047075;28;20297;-72
2022/02/06 08:08:16;;;;;;;8.73;2.47;;;6.30;99.90;;;;;;5041863;28;20716;-72
2022/02/06 08:11:03;;;;;;;11.50;2.80;;;6.30;99.90;;;;;;5042837;28;20665;-73
2022/02/06 08:13:53;;;;;;;5.37;2.20;;;6.30;99.90;;;;;;5035574;28;20417;-72
2022/02/06 08:16:39;;;;;;;4.13;1.90;;;6.30;99.90;;;;;;5036923;28;20445;-72
2022/02/06 08:19:25;;;;;;;10.33;2.60;;;6.30;99.90;;;;;;5044436;28;20275;-72
2022/02/06 08:22:11;;;;;;;7.80;2.70;;;6.30;99.90;;;;;;5043667;28;20450;-72
2022/02/06 08:24:57;;;;;;;12.13;2.93;;;6.40;99.90;;;;;;5039597;28;20322;-72
2022/02/06 08:27:45;;;;;;;2.33;1.40;;;6.40;99.90;;;;;;5039805;28;20465;-72
2022/02/06 08:30:33;;;;;;;9.43;2.30;;;6.40;99.90;;;;;;5042246;28;20505;-72
2022/02/06 08:33:19;;;;;;;15.82;2.42;;;6.40;99.90;;;;;;5047781;28;20432;-72
2022/02/06 08:36:05;;;;;;;9.30;2.47;;;6.40;99.90;;;;;;5043284;28;20679;-72
2022/02/06 08:38:51;;;;;;;5.43;2.13;;;6.40;99.90;;;;;;5046797;28;20449;-72
2022/02/06 08:41:36;;;;;;;9.43;2.50;;;6.40;99.90;;;;;;5040927;28;20459;-72
2022/02/06 08:44:24;;;;;;;9.93;2.77;;;6.40;99.90;;;;;;5035336;28;20222;-71
2022/02/06 08:47:11;;;;;;;8.50;2.07;;;6.30;99.90;;;;;;5057727;28;20551;-72
2022/02/06 08:49:57;;;;;;;8.05;2.30;;;6.30;99.90;;;;;;5063619;28;20562;-72
2022/02/06 08:52:43;;;;;;;9.27;2.30;;;6.40;99.90;;;;;;5044752;28;20268;-72
2022/02/06 08:55:29;;;;;;;6.73;1.97;;;6.50;99.90;;;;;;5045263;28;20446;-73
2022/02/06 08:58:15;;;;;;;13.47;3.20;;;6.50;99.90;;;;;;5045898;28;20528;-72
2022/02/06 09:01:02;;;;;;;12.05;2.17;;;6.40;99.90;;;;;;5042884;28;20435;-73
2022/02/06 09:03:49;;;;;;;7.93;2.05;;;6.40;99.90;;;;;;5042200;28;20222;-72
2022/02/06 09:06:36;;;;;;;7.18;2.40;;;6.50;99.90;;;;;;5046805;28;20210;-72
2022/02/06 09:09:22;;;;;;;11.47;2.70;;;6.50;99.90;;;;;;5044282;28;20332;-72
2022/02/06 09:12:10;;;;;;;15.75;2.83;;;6.40;99.90;;;;;;5040634;28;20938;-72
2022/02/06 09:14:57;;;;;;;2.60;1.55;;;6.50;99.90;;;;;;5044029;28;20684;-73
2022/02/06 09:17:45;;;;;;;4.13;1.83;;;6.50;99.90;;;;;;5049830;28;20237;-72
2022/02/06 09:20:32;;;;;;;8.15;1.90;;;6.50;99.90;;;;;;5038385;28;20826;-73
2022/02/06 09:23:18;;;;;;;3.63;2.05;;;6.50;99.90;;;;;;5042097;28;20216;-73
2022/02/06 09:26:03;;;;;;;14.23;3.10;;;6.50;99.90;;;;;;5045019;28;20695;-73
2022/02/06 09:28:50;;;;;;;8.37;2.63;;;6.50;99.90;;;;;;5044389;28;20276;-72
2022/02/06 09:31:36;;;;;;;13.67;2.77;;;6.50;99.90;;;;;;5041595;28;20504;-72
2022/02/06 09:37:09;;;;;;;6.60;2.92;;;6.70;99.90;;;;;;5045345;28;20461;-73
2022/02/06 09:39:55;;;;;;;7.57;1.90;;;6.70;99.90;;;;;;5043602;28;20204;-73
2022/02/06 09:42:44;;;;;;;6.00;1.90;;;6.70;99.90;;;;;;5038667;28;20472;-73
2022/02/06 09:45:33;;;;;;;11.40;2.60;;;6.80;99.90;;;;;;5046831;28;20455;-73
2022/02/06 09:48:19;;;;;;;6.40;1.50;;;6.80;99.90;;;;;;5039155;28;20473;-72
2022/02/06 09:51:06;;;;;;;12.47;3.27;;;6.80;99.90;;;;;;5042207;28;20218;-73
2022/02/06 09:53:52;;;;;;;12.80;3.35;;;6.70;99.90;;;;;;5040115;28;20501;-72
2022/02/06 09:56:43;;;;;;;4.97;2.13;;;6.70;99.90;;;;;;5038853;28;20257;-72
2022/02/06 09:59:37;;;;;;;8.10;4.53;;;6.70;99.90;;;;;;5035665;28;20222;-72
2022/02/06 10:02:26;;;;;;;5.45;2.00;;;6.80;99.90;;;;;;5039005;28;20236;-71
2022/02/06 10:05:13;;;;;;;4.93;1.80;;;6.80;99.90;;;;;;5042203;28;20190;-73
2022/02/06 10:08:11;;;;;;;7.50;1.90;;;6.80;99.90;;;;;;5043279;28;20448;-71
2022/02/06 10:11:04;;;;;;;4.40;2.23;;;6.80;99.90;;;;;;5035886;28;20451;-71
2022/02/06 10:13:50;;;;;;;8.13;2.00;;;6.80;99.90;;;;;;5043246;28;20764;-71
2022/02/06 10:16:35;;;;;;;7.83;2.30;;;6.80;99.90;;;;;;5039815;28;20604;-71
2022/02/06 10:19:21;;;;;;;8.90;2.70;;;6.80;99.90;;;;;;5038608;28;20447;-72
2022/02/06 10:22:22;;;;;;;4.20;2.50;;;6.70;99.90;;;;;;5037424;28;20537;-71
2022/02/06 10:25:11;;;;;;;6.75;2.42;;;6.80;99.90;;;;;;5037675;28;20455;-71
2022/02/06 10:28:02;;;;;;;8.95;3.20;;;6.80;99.90;;;;;;5035750;28;20220;-70
2022/02/06 10:30:51;;;;;;;8.73;3.05;;;6.70;99.90;;;;;;5047705;28;20275;-71
2022/02/06 10:33:46;;;;;;;16.98;4.07;;;6.80;99.90;;;;;;5041042;28;20202;-71
2022/02/06 10:36:36;;;;;;;4.60;2.17;;;6.80;99.90;;;;;;5045151;28;20197;-71
2022/02/06 10:39:24;;;;;;;9.90;3.30;;;6.80;99.90;;;;;;5040887;28;20448;-71
2022/02/06 10:42:27;;;;;;;9.57;2.85;;;6.80;99.90;;;;;;5045811;22;20297;-72
2022/02/06 10:45:16;;;;;;;2.65;1.65;;;6.80;99.90;;;;;;5033717;28;20341;-71
2022/02/06 10:48:01;;;;;;;8.03;2.57;;;6.90;99.90;;;;;;5027169;28;20210;-72
2022/02/06 10:50:47;;;;;;;8.93;2.87;;;6.90;99.90;;;;;;5021232;28;21100;-71
2022/02/06 10:53:33;;;;;;;3.35;1.45;;;7.00;99.90;;;;;;5028193;28;20543;-71
2022/02/06 10:56:18;;;;;;;4.63;1.88;;;6.90;99.90;;;;;;5042201;28;20209;-71
2022/02/06 10:59:07;;;;;;;4.72;1.85;;;6.90;99.90;;;;;;5045827;28;20569;-71
2022/02/06 11:01:53;;;;;;;9.60;2.30;;;6.90;99.90;;;;;;5031399;28;20235;-71
2022/02/06 11:04:44;;;;;;;8.55;2.45;;;6.90;99.90;;;;;;5032900;28;20475;-71
2022/02/06 11:07:30;;;;;;;3.70;1.73;;;6.90;99.90;;;;;;5040614;28;20202;-72
2022/02/06 11:10:16;;;;;;;10.87;2.00;;;7.00;99.90;;;;;;5027620;28;20193;-72
2022/02/06 11:13:03;;;;;;;7.78;1.77;;;6.90;99.90;;;;;;5026555;28;20457;-71
2022/02/06 11:15:51;;;;;;;6.80;2.20;;;6.90;99.90;;;;;;5030705;28;20286;-72
2022/02/06 11:18:49;;;;;;;12.37;2.17;;;6.90;99.90;;;;;;5026507;28;20552;-71
2022/02/06 11:21:35;;;;;;;4.13;2.00;;;6.90;99.90;;;;;;5026982;28;20949;-71
2022/02/06 11:24:21;;;;;;;6.70;2.50;;;6.90;99.90;;;;;;5027278;28;20456;-71
2022/02/06 11:27:08;;;;;;;11.77;3.23;;;6.80;99.90;;;;;;5032096;28;20977;-72
2022/02/06 11:29:54;;;;;;;3.80;2.10;;;6.80;99.90;;;;;;5030309;28;21058;-71
2022/02/06 11:32:42;;;;;;;7.40;2.20;;;6.80;99.90;;;;;;5026649;28;20460;-71
2022/02/06 11:35:30;;;;;;;2.50;1.70;;;6.90;99.90;;;;;;5033779;28;20458;-71
2022/02/06 11:44:59;;;;;;;10.50;2.65;;;6.90;99.90;;;;;;5031648;28;20900;-71
2022/02/06 11:47:51;;;;;;;8.23;2.60;;;6.90;99.90;;;;;;5031614;28;20270;-72
2022/02/06 11:50:46;;;;;;;4.83;1.67;;;7.00;99.90;;;;;;5026753;28;20212;-71
2022/02/06 11:53:37;;;;;;;13.20;2.53;;;6.90;99.90;;;;;;5031092;28;20433;-71
2022/02/06 11:56:34;;;;;;;4.67;2.00;;;6.80;99.90;;;;;;5027810;28;20426;-70
2022/02/06 11:59:19;;;;;;;4.33;1.93;;;6.80;99.90;;;;;;5034322;28;20527;-71
2022/02/06 12:02:26;;;;;;;5.73;2.40;;;6.90;99.90;;;;;;5025849;28;20959;-72
2022/02/06 12:05:16;;;;;;;17.63;2.30;;;6.80;99.90;;;;;;5029148;28;20457;-71
2022/02/06 12:08:09;;;;;;;6.23;1.90;;;6.90;99.90;;;;;;5026725;28;20230;-71
2022/02/06 12:11:15;;;;;;;4.50;2.00;;;6.80;99.90;;;;;;5023448;28;20938;-73
2022/02/06 12:14:10;;;;;;;5.40;2.17;;;6.80;99.90;;;;;;5041580;28;20421;-72
2022/02/06 12:17:09;;;;;;;6.27;2.07;;;6.80;99.90;;;;;;5035818;28;20414;-71
2022/02/06 12:20:07;;;;;;;8.50;3.40;;;6.70;99.90;;;;;;5027382;28;20496;-72
2022/02/06 12:22:54;;;;;;;9.23;2.57;;;6.70;99.90;;;;;;5029444;28;20874;-71
2022/02/06 12:25:40;;;;;;;7.60;3.10;;;6.70;99.90;;;;;;5030169;28;20468;-71
2022/02/06 12:28:30;;;;;;;3.37;2.10;;;6.70;99.90;;;;;;5027591;28;20458;-71
2022/02/06 12:31:28;;;;;;;5.17;2.90;;;6.70;99.90;;;;;;5023207;28;20571;-72
2022/02/06 12:37:44;;;;;;;9.63;1.87;;;6.60;99.90;;;;;;5028541;28;20881;-71
2022/02/06 12:40:31;;;;;;;5.05;2.05;;;6.60;99.90;;;;;;5026934;28;20452;-72
2022/02/06 12:43:18;;;;;;;4.23;2.60;;;6.60;99.90;;;;;;5026842;28;20366;-71
2022/02/06 12:46:04;;;;;;;4.37;2.47;;;6.60;99.90;;;;;;5041456;28;20419;-72
2022/02/06 12:48:50;;;;;;;12.17;2.73;;;6.60;99.90;;;;;;5027800;28;20925;-72
2022/02/06 12:51:36;;;;;;;5.67;1.80;;;6.70;99.90;;;;;;5028365;28;20481;-71
2022/02/06 12:54:23;;;;;;;3.63;2.22;;;6.60;99.90;;;;;;5026473;28;20515;-71
2022/02/06 12:57:11;;;;;;;7.17;2.53;;;6.60;99.90;;;;;;5032503;28;20206;-70
2022/02/06 12:59:58;;;;;;;4.57;1.90;;;6.50;99.90;;;;;;5025607;28;20958;-72
2022/02/06 13:02:44;;;;;;;8.60;2.33;;;6.50;99.90;;;;;;5029284;28;20470;-72
2022/02/06 13:05:30;;;;;;;10.40;1.97;;;6.60;99.90;;;;;;5032871;28;20459;-72
2022/02/06 13:08:15;;;;;;;4.70;2.30;;;6.60;99.90;;;;;;5027795;28;20441;-71
2022/02/06 13:11:05;;;;;;;5.83;2.30;;;6.60;99.90;;;;;;5030457;28;20516;-71
2022/02/06 13:13:59;;;;;;;4.38;2.20;;;6.60;99.90;;;;;;5027892;28;20417;-71
2022/02/06 13:16:52;;;;;;;4.87;2.10;;;6.60;99.90;;;;;;5029472;28;20670;-71
2022/02/06 13:19:50;;;;;;;6.63;2.30;;;6.50;99.90;;;;;;5024020;28;20573;-72
2022/02/06 13:22:45;;;;;;;4.27;1.97;;;6.50;99.90;;;;;;5034367;28;21013;-71
2022/02/06 13:25:50;;;;;;;2.92;2.03;;;6.50;99.90;;;;;;5034540;28;21032;-72
2022/02/06 13:28:51;;;;;;;8.37;1.67;;;6.60;99.90;;;;;;5029276;28;20574;-71
2022/02/06 13:31:55;;;;;;;3.83;1.97;;;6.60;99.90;;;;;;5026555;28;21012;-72
2022/02/06 13:34:53;;;;;;;4.50;2.30;;;6.60;99.90;;;;;;5031816;28;20510;-72
2022/02/06 13:37:47;;;;;;;4.33;2.00;;;6.50;99.90;;;;;;5027381;28;20535;-72
2022/02/06 13:40:34;;;;;;;7.37;3.30;;;6.60;99.90;;;;;;5028893;28;20423;-72
2022/02/06 13:43:23;;;;;;;6.20;2.10;;;6.60;99.90;;;;;;5026401;28;21140;-72
2022/02/06 13:46:14;;;;;;;5.85;1.52;;;6.60;99.90;;;;;;5032471;28;20717;-72
2022/02/06 13:49:01;;;;;;;2.10;1.40;;;6.60;99.90;;;;;;5028359;28;20232;-72
2022/02/06 13:51:49;;;;;;;2.90;1.80;;;6.60;99.90;;;;;;5030501;28;20574;-72
2022/02/06 13:54:39;;;;;;;4.27;1.53;;;6.70;99.90;;;;;;5029638;28;20797;-72
2022/02/06 13:57:26;;;;;;;3.73;1.80;;;6.70;99.90;;;;;;5033659;28;20440;-71
2022/02/06 14:00:14;;;;;;;3.00;1.50;;;6.70;99.90;;;;;;5026235;28;20459;-72
2022/02/06 14:02:59;;;;;;;3.00;1.70;;;6.70;99.90;;;;;;5028698;28;20483;-72
2022/02/06 14:05:51;;;;;;;8.63;2.00;;;6.70;99.90;;;;;;5033745;28;20454;-72
2022/02/06 14:08:39;;;;;;;3.05;1.55;;;6.70;99.90;;;;;;5029578;28;20198;-72
2022/02/06 14:11:29;;;;;;;5.63;2.03;;;6.70;99.90;;;;;;5034053;28;20742;-72
2022/02/06 14:14:23;;;;;;;4.50;1.60;;;6.70;99.90;;;;;;5032391;28;20408;-71
2022/02/06 14:17:17;;;;;;;2.67;1.70;;;6.70;99.90;;;;;;5026056;28;20200;-72
2022/02/06 14:20:10;;;;;;;4.10;1.87;;;6.70;99.90;;;;;;5028410;28;20202;-72
2022/02/06 14:23:02;;;;;;;6.57;1.70;;;6.70;99.90;;;;;;5027048;28;20604;-72
2022/02/06 14:25:48;;;;;;;2.70;1.30;;;6.70;99.90;;;;;;5032138;28;20202;-73
2022/02/06 14:28:36;;;;;;;9.85;2.03;;;6.80;99.90;;;;;;5025009;28;20455;-72
2022/02/06 14:31:26;;;;;;;2.67;1.50;;;6.80;99.90;;;;;;5032356;28;20285;-72
2022/02/06 14:34:14;;;;;;;6.83;1.63;;;6.80;99.90;;;;;;5027039;28;20561;-72
2022/02/06 14:37:10;;;;;;;6.60;1.73;;;6.80;99.90;;;;;;5032686;28;20433;-71
2022/02/06 14:40:09;;;;;;;2.50;1.60;;;6.90;99.90;;;;;;5029473;28;20450;-72
2022/02/06 14:42:57;;;;;;;4.27;1.40;;;6.90;99.90;;;;;;5031939;28;20587;-72
2022/02/06 14:45:48;;;;;;;3.97;1.63;;;6.90;99.90;;;;;;5030795;28;20424;-72
2022/02/06 14:48:34;;;;;;;2.53;1.50;;;6.90;99.90;;;;;;5026132;28;20352;-72
2022/02/06 14:51:20;;;;;;;1.60;1.00;;;6.90;99.90;;;;;;5027105;28;20458;-72
2022/02/06 14:54:08;;;;;;;7.07;1.50;;;6.90;99.90;;;;;;5028904;28;20569;-72
2022/02/06 14:56:55;;;;;;;2.05;1.20;;;6.90;99.90;;;;;;5030708;28;20206;-72
2022/02/06 14:59:41;;;;;;;2.10;1.40;;;6.90;99.90;;;;;;5027840;28;20212;-72
2022/02/06 15:02:27;;;;;;;3.15;1.02;;;6.90;99.90;;;;;;5035194;28;20486;-71
2022/02/06 15:05:12;;;;;;;3.08;1.38;;;6.90;99.90;;;;;;5030270;28;20230;-70
2022/02/06 15:07:58;;;;;;;2.30;1.00;;;6.80;99.90;;;;;;5027369;28;20330;-70
2022/02/06 15:10:43;;;;;;;2.07;1.17;;;6.90;99.90;;;;;;5024573;28;20445;-70
2022/02/06 15:13:33;;;;;;;3.03;1.33;;;6.80;99.90;;;;;;5031497;28;20797;-70
2022/02/06 15:16:23;;;;;;;1.60;1.10;;;6.90;99.90;;;;;;5025993;28;20572;-71
2022/02/06 15:19:18;;;;;;;1.70;1.27;;;6.90;99.90;;;;;;5024258;28;20441;-72
2022/02/06 15:22:05;;;;;;;6.90;1.00;;;6.90;99.90;;;;;;5034518;28;20581;-71
2022/02/06 15:24:50;;;;;;;2.30;1.00;;;6.90;99.90;;;;;;5023843;28;21273;-72
2022/02/06 15:27:36;;;;;;;2.97;1.37;;;6.90;99.90;;;;;;5027726;28;20445;-72
2022/02/06 15:30:23;;;;;;;2.00;1.20;;;6.90;99.90;;;;;;5030780;28;20920;-72
2022/02/06 15:33:09;;;;;;;4.70;1.27;;;6.90;99.90;;;;;;5042633;28;20446;-71
2022/02/06 15:35:55;;;;;;;1.93;1.00;;;6.90;99.90;;;;;;5033918;28;20532;-72
2022/02/06 15:38:41;;;;;;;2.33;1.20;;;6.90;99.90;;;;;;5029042;28;20534;-72
2022/02/06 15:41:27;;;;;;;1.20;0.80;;;7.00;99.90;;;;;;5036998;28;20844;-72
2022/02/06 15:44:13;;;;;;;2.37;1.23;;;7.00;99.90;;;;;;5040779;28;20214;-72
2022/02/06 15:46:59;;;;;;;2.20;0.83;;;7.00;99.90;;;;;;5031227;28;20422;-72
2022/02/06 15:49:45;;;;;;;1.40;0.80;;;7.00;99.90;;;;;;5035765;28;20411;-71
2022/02/06 15:52:31;;;;;;;2.57;1.13;;;7.00;99.90;;;;;;5045505;28;20449;-71
2022/02/06 15:55:16;;;;;;;4.00;1.93;;;7.00;99.90;;;;;;5035655;28;20417;-71
2022/02/06 15:58:02;;;;;;;1.77;0.90;;;7.00;99.90;;;;;;5030238;28;20449;-71
2022/02/06 16:00:47;;;;;;;2.10;1.17;;;7.10;99.90;;;;;;5043390;28;20480;-72
2022/02/06 16:03:34;;;;;;;4.50;0.87;;;7.00;99.90;;;;;;5043742;28;20428;-72
2022/02/06 16:06:20;;;;;;;1.50;0.80;;;7.00;99.90;;;;;;5038506;28;20421;-71
2022/02/06 16:09:06;;;;;;;1.33;0.70;;;6.90;99.90;;;;;;5035406;28;20476;-72
2022/02/06 16:11:52;;;;;;;3.22;1.25;;;7.00;99.90;;;;;;5045291;28;20229;-72